createdAt,value
2019-03-24T00:00:34.118Z,99.9
2019-03-24T00:01:41.683Z,99.9
2019-03-24T00:02:48.620Z,99.9
2019-03-24T00:03:55.824Z,99.9
2019-03-24T00:05:02.764Z,99.9
2019-03-24T00:06:09.960Z,99.9
2019-03-24T00:07:17.167Z,99.9
2019-03-24T00:08:24.366Z,99.9
2019-03-24T00:09:31.560Z,99.9
2019-03-24T00:10:38.770Z,99.9
2019-03-24T00:11:45.704Z,99.9
2019-03-24T00:12:52.926Z,99.9
2019-03-24T00:14:00.127Z,99.9
2019-03-24T00:15:07.321Z,99.9
2019-03-24T00:16:14.534Z,99.9
2019-03-24T00:17:21.729Z,99.9
2019-03-24T00:18:28.973Z,99.9
2019-03-24T00:19:36.176Z,99.9
2019-03-24T00:20:43.384Z,99.9
2019-03-24T00:21:50.613Z,99.9
2019-03-24T00:22:57.843Z,99.9
2019-03-24T00:24:04.771Z,99.9
2019-03-24T00:25:11.970Z,99.9
2019-03-24T00:26:18.901Z,99.9
2019-03-24T00:27:26.094Z,99.9
2019-03-24T00:28:33.292Z,99.9
2019-03-24T00:29:40.506Z,99.9
2019-03-24T00:30:47.711Z,99.9
2019-03-24T00:31:54.911Z,99.9
2019-03-24T00:33:02.115Z,99.9
2019-03-24T00:34:09.314Z,99.9
2019-03-24T00:35:16.519Z,99.9
2019-03-24T00:36:23.724Z,99.9
2019-03-24T00:37:30.923Z,99.9
2019-03-24T00:38:37.850Z,99.9
2019-03-24T00:39:45.053Z,99.9
2019-03-24T00:40:52.255Z,99.9
2019-03-24T00:41:59.454Z,99.9
2019-03-24T00:43:06.663Z,99.9
2019-03-24T00:44:13.873Z,99.9
2019-03-24T00:45:21.100Z,99.9
2019-03-24T00:46:28.296Z,99.9
2019-03-24T00:47:35.502Z,99.9
2019-03-24T00:48:42.708Z,99.9
2019-03-24T00:49:49.630Z,99.9
2019-03-24T00:50:56.838Z,99.9
2019-03-24T00:52:03.764Z,99.9
2019-03-24T00:53:10.962Z,99.9
2019-03-24T00:54:18.165Z,99.9
2019-03-24T00:55:25.368Z,99.9
2019-03-24T00:56:32.573Z,99.9
2019-03-24T00:57:39.779Z,99.9
2019-03-24T00:58:46.983Z,99.9
2019-03-24T00:59:54.179Z,99.9
2019-03-24T01:01:01.112Z,99.9
2019-03-24T01:02:08.037Z,99.9
2019-03-24T01:03:15.235Z,99.9
2019-03-24T01:04:22.161Z,99.9
2019-03-24T01:05:29.369Z,99.9
2019-03-24T01:06:36.577Z,99.9
2019-03-24T01:07:43.776Z,99.9
2019-03-24T01:08:50.977Z,99.9
2019-03-24T01:09:58.174Z,99.9
2019-03-24T01:11:05.108Z,99.9
2019-03-24T01:12:12.309Z,99.9
2019-03-24T01:13:19.509Z,99.9
2019-03-24T01:14:26.738Z,99.9
2019-03-24T01:15:33.942Z,99.9
2019-03-24T01:16:40.875Z,99.9
2019-03-24T01:17:48.072Z,99.9
2019-03-24T01:18:55.277Z,99.9
2019-03-24T01:20:02.199Z,99.9
2019-03-24T01:21:09.395Z,99.9
2019-03-24T01:22:16.602Z,99.9
2019-03-24T01:23:23.528Z,99.9
2019-03-24T01:24:30.464Z,99.9
2019-03-24T01:25:37.667Z,99.9
2019-03-24T01:26:44.867Z,99.9
2019-03-24T01:27:52.065Z,99.9
2019-03-24T01:28:59.290Z,99.9
2019-03-24T01:30:06.215Z,99.9
2019-03-24T01:31:13.418Z,99.9
2019-03-24T01:32:20.621Z,99.9
2019-03-24T01:33:27.566Z,99.9
2019-03-24T01:34:34.780Z,99.9
2019-03-24T01:35:41.975Z,99.9
2019-03-24T01:36:49.198Z,99.9
2019-03-24T01:37:56.128Z,99.9
2019-03-24T01:39:03.332Z,99.9
2019-03-24T01:40:10.266Z,99.9
2019-03-24T01:41:17.472Z,99.9
2019-03-24T01:42:24.675Z,99.9
2019-03-24T01:43:31.885Z,99.9
2019-03-24T01:44:39.087Z,99.9
2019-03-24T01:45:46.018Z,99.9
2019-03-24T01:47:03.899Z,99.9
2019-03-24T01:48:11.097Z,99.9
2019-03-24T01:49:18.297Z,99.9
2019-03-24T01:50:25.503Z,99.9
2019-03-24T01:51:32.704Z,99.9
2019-03-24T01:52:39.908Z,99.9
2019-03-24T01:53:46.841Z,99.9
2019-03-24T01:54:54.041Z,99.9
2019-03-24T01:56:01.240Z,99.9
2019-03-24T01:57:08.164Z,99.9
2019-03-24T01:58:15.364Z,99.9
2019-03-24T01:59:22.291Z,99.9
2019-03-24T02:00:29.487Z,99.9
2019-03-24T02:01:36.686Z,99.9
2019-03-24T02:02:43.888Z,99.9
2019-03-24T02:03:50.817Z,99.9
2019-03-24T02:04:57.753Z,99.9
2019-03-24T02:06:04.955Z,99.9
2019-03-24T02:07:12.155Z,99.9
2019-03-24T02:08:19.359Z,99.9
2019-03-24T02:09:26.559Z,99.9
2019-03-24T02:10:33.766Z,99.9
2019-03-24T02:11:40.962Z,99.9
2019-03-24T02:12:48.183Z,99.9
2019-03-24T02:13:55.380Z,99.9
2019-03-24T02:15:02.581Z,99.9
2019-03-24T02:16:09.861Z,99.9
2019-03-24T02:18:23.999Z,99.9
2019-03-24T02:19:31.197Z,99.9
2019-03-24T02:20:38.398Z,99.9
2019-03-24T02:21:45.610Z,99.9
2019-03-24T02:22:52.808Z,99.9
2019-03-24T02:24:00.009Z,99.9
2019-03-24T02:25:07.210Z,99.9
2019-03-24T02:26:14.408Z,99.9
2019-03-24T02:27:21.612Z,99.9
2019-03-24T02:28:28.814Z,99.9
2019-03-24T02:29:36.017Z,99.9
2019-03-24T02:30:43.216Z,99.9
2019-03-24T02:31:50.419Z,99.9
2019-03-24T02:32:57.615Z,99.9
2019-03-24T02:34:04.824Z,99.9
2019-03-24T02:35:12.020Z,99.9
2019-03-24T02:36:18.950Z,99.9
2019-03-24T02:37:26.165Z,99.9
2019-03-24T02:38:33.353Z,99.9
2019-03-24T02:39:40.553Z,99.9
2019-03-24T02:40:47.485Z,99.9
2019-03-24T02:41:54.150Z,99.9
2019-03-24T02:43:01.084Z,99.9
2019-03-24T02:44:08.008Z,99.9
2019-03-24T02:45:15.206Z,99.9
2019-03-24T02:46:24.426Z,99.9
2019-03-24T02:47:32.109Z,99.9
2019-03-24T02:48:39.314Z,99.9
2019-03-24T02:49:46.514Z,99.9
2019-03-24T02:50:53.743Z,99.9
2019-03-24T02:52:00.943Z,99.9
2019-03-24T02:53:07.865Z,99.9
2019-03-24T02:54:15.064Z,99.9
2019-03-24T02:55:22.266Z,99.9
2019-03-24T02:56:29.186Z,99.9
2019-03-24T02:57:36.403Z,99.9
2019-03-24T02:58:43.616Z,99.9
2019-03-24T02:59:50.821Z,99.9
2019-03-24T03:00:57.747Z,99.9
2019-03-24T03:02:04.955Z,99.9
2019-03-24T03:03:12.157Z,99.9
2019-03-24T03:04:19.353Z,99.9
2019-03-24T03:05:26.556Z,99.9
2019-03-24T03:06:33.753Z,99.9
2019-03-24T03:07:40.951Z,99.9
2019-03-24T03:08:48.163Z,99.9
2019-03-24T03:09:55.351Z,99.9
2019-03-24T03:11:02.550Z,99.9
2019-03-24T03:12:09.748Z,99.9
2019-03-24T03:13:16.971Z,99.9
2019-03-24T03:14:24.176Z,99.9
2019-03-24T03:15:31.369Z,99.9
2019-03-24T03:16:39.319Z,99.9
2019-03-24T03:17:46.362Z,99.9
2019-03-24T03:18:53.565Z,99.9
2019-03-24T03:20:00.777Z,99.9
2019-03-24T03:21:07.960Z,99.9
2019-03-24T03:22:15.166Z,99.9
2019-03-24T03:23:21.812Z,99.9
2019-03-24T03:24:29.014Z,99.9
2019-03-24T03:25:36.216Z,99.9
2019-03-24T03:26:43.168Z,99.9
2019-03-24T03:27:50.108Z,99.9
2019-03-24T03:28:57.311Z,99.9
2019-03-24T03:30:04.257Z,99.9
2019-03-24T03:31:11.478Z,99.9
2019-03-24T03:32:18.681Z,99.9
2019-03-24T03:33:25.878Z,99.9
2019-03-24T03:34:33.107Z,99.9
2019-03-24T03:35:40.304Z,99.9
2019-03-24T03:36:47.503Z,99.9
2019-03-24T03:37:54.871Z,99.9
2019-03-24T03:39:02.158Z,99.9
2019-03-24T03:40:09.356Z,99.9
2019-03-24T03:41:16.749Z,99.9
2019-03-24T03:42:23.945Z,99.9
2019-03-24T03:43:31.177Z,99.9
2019-03-24T03:44:38.104Z,99.9
2019-03-24T03:45:45.321Z,99.9
2019-03-24T03:46:53.237Z,99.9
2019-03-24T03:48:00.109Z,99.9
2019-03-24T03:49:07.325Z,99.9
2019-03-24T03:50:14.258Z,99.9
2019-03-24T03:51:21.452Z,99.9
2019-03-24T03:52:28.642Z,99.9
2019-03-24T03:53:35.842Z,99.9
2019-03-24T03:54:42.775Z,99.9
2019-03-24T03:55:49.972Z,99.9
2019-03-24T03:56:57.168Z,99.9
2019-03-24T03:58:04.107Z,99.9
2019-03-24T03:59:11.041Z,99.9
2019-03-24T04:00:18.242Z,99.9
2019-03-24T04:01:25.448Z,99.9
2019-03-24T04:02:32.668Z,99.9
2019-03-24T04:03:39.866Z,99.9
2019-03-24T04:04:47.069Z,99.9
2019-03-24T04:05:54.264Z,99.9
2019-03-24T04:07:01.460Z,99.9
2019-03-24T04:08:08.534Z,99.9
2019-03-24T04:09:15.744Z,99.9
2019-03-24T04:10:22.944Z,99.9
2019-03-24T04:11:30.143Z,99.9
2019-03-24T04:12:37.370Z,99.9
2019-03-24T04:13:44.563Z,99.9
2019-03-24T04:14:51.769Z,99.9
2019-03-24T04:15:59.013Z,99.9
2019-03-24T04:17:07.807Z,99.9
2019-03-24T04:18:15.173Z,99.9
2019-03-24T04:19:22.378Z,99.9
2019-03-24T04:20:29.310Z,99.9
2019-03-24T04:21:36.523Z,99.9
2019-03-24T04:22:43.716Z,99.9
2019-03-24T04:23:50.649Z,99.9
2019-03-24T04:24:57.851Z,99.9
2019-03-24T04:26:05.071Z,99.9
2019-03-24T04:27:12.270Z,99.9
2019-03-24T04:28:19.198Z,99.9
2019-03-24T04:29:26.397Z,99.9
2019-03-24T04:30:33.599Z,99.9
2019-03-24T04:31:40.793Z,99.9
2019-03-24T04:32:47.725Z,99.9
2019-03-24T04:33:54.649Z,99.9
2019-03-24T04:35:01.861Z,99.9
2019-03-24T04:36:09.057Z,99.9
2019-03-24T04:37:15.997Z,99.9
2019-03-24T04:38:23.202Z,99.9
2019-03-24T04:39:30.398Z,99.9
2019-03-24T04:40:37.600Z,99.9
2019-03-24T04:41:44.799Z,99.9
2019-03-24T04:42:52.002Z,99.9
2019-03-24T04:43:59.216Z,99.9
2019-03-24T04:45:06.405Z,99.9
2019-03-24T04:46:13.337Z,99.9
2019-03-24T04:47:20.544Z,99.9
2019-03-24T04:48:27.462Z,99.9
2019-03-24T04:49:34.391Z,99.9
2019-03-24T04:50:41.320Z,99.9
2019-03-24T04:51:48.248Z,99.9
2019-03-24T04:52:55.448Z,99.9
2019-03-24T04:54:02.652Z,99.9
2019-03-24T04:55:09.854Z,99.9
2019-03-24T04:56:17.094Z,99.9
2019-03-24T04:57:24.290Z,99.9
2019-03-24T04:58:31.493Z,99.9
2019-03-24T04:59:38.423Z,99.9
2019-03-24T05:00:45.636Z,99.9
2019-03-24T05:01:52.830Z,99.9
2019-03-24T05:03:00.039Z,99.9
2019-03-24T05:04:07.242Z,99.9
2019-03-24T05:05:14.439Z,99.9
2019-03-24T05:06:21.641Z,99.9
2019-03-24T05:07:28.842Z,99.9
2019-03-24T05:08:36.042Z,99.9
2019-03-24T05:09:43.236Z,99.9
2019-03-24T05:10:50.451Z,99.9
2019-03-24T05:11:57.377Z,99.9
2019-03-24T05:13:04.574Z,99.9
2019-03-24T05:14:11.777Z,99.9
2019-03-24T05:15:18.699Z,99.9
2019-03-24T05:16:25.900Z,99.9
2019-03-24T05:17:33.101Z,99.9
2019-03-24T05:18:40.298Z,99.9
2019-03-24T05:19:47.500Z,99.9
2019-03-24T05:20:54.425Z,99.9
2019-03-24T05:22:01.625Z,99.9
2019-03-24T05:23:08.556Z,99.9
2019-03-24T05:24:15.481Z,99.9
2019-03-24T05:25:23.749Z,99.9
2019-03-24T05:26:31.016Z,99.9
2019-03-24T05:27:37.944Z,99.9
2019-03-24T05:28:45.146Z,99.9
2019-03-24T05:29:52.349Z,99.9
2019-03-24T05:30:59.560Z,99.9
2019-03-24T05:32:06.481Z,99.9
2019-03-24T05:33:13.696Z,99.9
2019-03-24T05:34:20.878Z,99.9
2019-03-24T05:35:28.075Z,99.9
2019-03-24T05:36:35.273Z,99.9
2019-03-24T05:37:42.477Z,99.9
2019-03-24T05:38:49.676Z,99.9
2019-03-24T05:39:56.867Z,99.9
2019-03-24T05:41:04.069Z,99.9
2019-03-24T05:42:11.002Z,99.9
2019-03-24T05:43:18.208Z,99.9
2019-03-24T05:44:25.420Z,99.9
2019-03-24T05:45:32.601Z,99.9
2019-03-24T05:46:39.802Z,99.9
2019-03-24T05:47:47.011Z,99.9
2019-03-24T05:48:53.939Z,99.9
2019-03-24T05:50:01.139Z,99.9
2019-03-24T05:51:08.336Z,99.9
2019-03-24T05:52:15.533Z,99.9
2019-03-24T05:53:22.735Z,99.9
2019-03-24T05:54:29.667Z,99.9
2019-03-24T05:55:36.625Z,99.9
2019-03-24T05:56:43.828Z,99.9
2019-03-24T05:57:51.029Z,99.9
2019-03-24T05:58:58.228Z,99.9
2019-03-24T06:00:05.436Z,99.9
2019-03-24T06:01:12.630Z,99.9
2019-03-24T06:02:19.292Z,99.9
2019-03-24T06:03:26.497Z,99.9
2019-03-24T06:04:33.694Z,99.9
2019-03-24T06:05:40.892Z,99.9
2019-03-24T06:06:47.551Z,99.9
2019-03-24T06:07:54.748Z,99.9
2019-03-24T06:09:01.955Z,99.9
2019-03-24T06:10:09.151Z,99.9
2019-03-24T06:11:16.352Z,99.9
2019-03-24T06:12:23.568Z,99.9
2019-03-24T06:13:30.770Z,99.9
2019-03-24T06:14:37.969Z,99.9
2019-03-24T06:15:45.175Z,99.9
2019-03-24T06:16:52.592Z,99.9
2019-03-24T06:17:59.526Z,99.9
2019-03-24T06:19:06.726Z,99.9
2019-03-24T06:20:13.927Z,99.9
2019-03-24T06:21:20.854Z,99.9
2019-03-24T06:22:27.782Z,99.9
2019-03-24T06:23:34.981Z,99.9
2019-03-24T06:24:42.181Z,99.9
2019-03-24T06:25:49.384Z,99.9
2019-03-24T06:26:56.580Z,99.9
2019-03-24T06:28:03.517Z,99.9
2019-03-24T06:29:10.727Z,99.9
2019-03-24T06:30:17.940Z,99.9
2019-03-24T06:31:24.865Z,99.9
2019-03-24T06:32:32.066Z,99.9
2019-03-24T06:33:39.265Z,99.9
2019-03-24T06:34:46.486Z,99.9
2019-03-24T06:35:53.137Z,99.9
2019-03-24T06:37:00.335Z,99.9
2019-03-24T06:38:07.264Z,99.9
2019-03-24T06:39:14.464Z,99.9
2019-03-24T06:40:21.391Z,99.9
2019-03-24T06:41:28.589Z,99.9
2019-03-24T06:42:35.517Z,99.9
2019-03-24T06:43:42.715Z,99.9
2019-03-24T06:44:49.915Z,99.9
2019-03-24T06:45:57.113Z,99.9
2019-03-24T06:47:04.327Z,99.9
2019-03-24T06:48:11.510Z,99.9
2019-03-24T06:49:18.709Z,99.9
2019-03-24T06:50:25.640Z,99.9
2019-03-24T06:51:32.844Z,99.9
2019-03-24T06:52:40.047Z,99.9
2019-03-24T06:53:47.251Z,99.9
2019-03-24T06:54:54.178Z,99.9
2019-03-24T06:56:01.376Z,99.9
2019-03-24T06:57:08.583Z,99.9
2019-03-24T06:58:15.791Z,99.9
2019-03-24T06:59:22.998Z,99.9
2019-03-24T07:00:30.201Z,99.9
2019-03-24T07:01:37.397Z,99.9
2019-03-24T07:02:44.601Z,99.9
2019-03-24T07:03:51.803Z,99.9
2019-03-24T07:04:59.004Z,99.9
2019-03-24T07:06:06.220Z,99.9
2019-03-24T07:07:13.431Z,99.9
2019-03-24T07:08:20.633Z,99.9
2019-03-24T07:09:27.851Z,99.9
2019-03-24T07:10:35.051Z,99.9
2019-03-24T07:11:41.992Z,99.9
2019-03-24T07:12:48.919Z,99.9
2019-03-24T07:13:58.259Z,99.9
2019-03-24T07:15:05.484Z,99.9
2019-03-24T07:16:12.674Z,99.9
2019-03-24T07:17:19.333Z,99.9
2019-03-24T07:18:26.535Z,99.9
2019-03-24T07:19:33.461Z,99.9
2019-03-24T07:20:40.391Z,99.9
2019-03-24T07:21:47.326Z,99.9
2019-03-24T07:22:54.525Z,99.9
2019-03-24T07:24:01.729Z,99.9
2019-03-24T07:25:08.929Z,99.9
2019-03-24T07:26:16.144Z,99.9
2019-03-24T07:27:23.345Z,99.9
2019-03-24T07:28:30.547Z,99.9
2019-03-24T07:29:37.748Z,99.9
2019-03-24T07:30:47.019Z,99.9
2019-03-24T07:31:54.217Z,99.9
2019-03-24T07:33:01.422Z,99.9
2019-03-24T07:34:08.386Z,99.9
2019-03-24T07:35:15.587Z,99.9
2019-03-24T07:36:25.031Z,99.9
2019-03-24T07:37:31.964Z,99.9
2019-03-24T07:38:39.169Z,99.9
2019-03-24T07:39:45.825Z,99.9
2019-03-24T07:40:53.031Z,99.9
2019-03-24T07:42:00.231Z,99.9
2019-03-24T07:43:07.202Z,99.9
2019-03-24T07:44:14.386Z,99.9
2019-03-24T07:45:21.638Z,99.9
2019-03-24T07:46:28.550Z,99.9
2019-03-24T07:47:35.752Z,99.9
2019-03-24T07:48:42.955Z,99.9
2019-03-24T07:49:49.878Z,99.9
2019-03-24T07:50:57.077Z,99.9
2019-03-24T07:52:04.281Z,99.9
2019-03-24T07:53:11.496Z,99.9
2019-03-24T07:54:18.424Z,99.9
2019-03-24T07:55:25.352Z,99.9
2019-03-24T07:56:32.552Z,99.9
2019-03-24T07:57:39.753Z,99.9
2019-03-24T07:58:46.962Z,99.9
2019-03-24T07:59:53.891Z,99.9
2019-03-24T08:01:01.086Z,99.9
2019-03-24T08:02:08.298Z,99.9
2019-03-24T08:03:15.505Z,99.9
2019-03-24T08:04:22.707Z,99.9
2019-03-24T08:05:29.632Z,99.9
2019-03-24T08:06:36.841Z,99.9
2019-03-24T08:07:43.966Z,99.9
2019-03-24T08:08:51.171Z,99.9
2019-03-24T08:09:58.375Z,99.9
2019-03-24T08:11:05.583Z,99.9
2019-03-24T08:12:12.809Z,99.9
2019-03-24T08:13:19.744Z,99.9
2019-03-24T08:14:27.124Z,99.9
2019-03-24T08:15:34.330Z,99.9
2019-03-24T08:16:41.525Z,99.9
2019-03-24T08:17:48.456Z,99.9
2019-03-24T08:18:55.391Z,99.9
2019-03-24T08:20:02.591Z,99.9
2019-03-24T08:21:09.796Z,99.9
2019-03-24T08:22:16.717Z,99.9
2019-03-24T08:23:23.917Z,99.9
2019-03-24T08:24:31.119Z,99.9
2019-03-24T08:25:38.326Z,99.9
2019-03-24T08:26:45.244Z,99.9
2019-03-24T08:27:52.475Z,99.9
2019-03-24T08:28:59.683Z,99.9
2019-03-24T08:30:06.608Z,99.9
2019-03-24T08:31:13.809Z,99.9
2019-03-24T08:32:21.013Z,99.9
2019-03-24T08:33:28.226Z,99.9
2019-03-24T08:34:35.166Z,99.9
2019-03-24T08:35:42.090Z,99.9
2019-03-24T08:36:49.322Z,99.9
2019-03-24T08:37:56.524Z,99.9
2019-03-24T08:39:03.727Z,99.9
2019-03-24T08:40:10.930Z,99.9
2019-03-24T08:41:18.136Z,99.9
2019-03-24T08:42:25.341Z,99.9
2019-03-24T08:43:32.270Z,99.9
2019-03-24T08:44:39.470Z,99.9
2019-03-24T08:45:46.401Z,99.9
2019-03-24T08:46:53.329Z,99.9
2019-03-24T08:48:00.529Z,99.9
2019-03-24T08:49:07.455Z,99.9
2019-03-24T08:50:14.653Z,99.9
2019-03-24T08:51:21.581Z,99.9
2019-03-24T08:52:28.783Z,99.9
2019-03-24T08:53:35.985Z,99.9
2019-03-24T08:54:43.188Z,99.9
2019-03-24T08:55:50.385Z,99.9
2019-03-24T08:56:57.589Z,99.9
2019-03-24T08:58:04.798Z,99.9
2019-03-24T08:59:12.020Z,99.9
2019-03-24T09:00:29.809Z,99.9
2019-03-24T09:01:37.887Z,99.9
2019-03-24T09:02:45.090Z,99.9
2019-03-24T09:03:52.293Z,99.9
2019-03-24T09:04:59.517Z,99.9
2019-03-24T09:06:06.454Z,99.9
2019-03-24T09:07:13.401Z,99.9
2019-03-24T09:08:20.641Z,99.9
2019-03-24T09:09:27.293Z,99.9
2019-03-24T09:10:34.500Z,99.9
2019-03-24T09:11:41.708Z,99.9
2019-03-24T09:12:48.910Z,99.9
2019-03-24T09:13:56.111Z,99.9
2019-03-24T09:15:03.322Z,99.9
2019-03-24T09:16:10.255Z,99.9
2019-03-24T09:17:17.465Z,99.9
2019-03-24T09:18:24.400Z,99.9
2019-03-24T09:19:31.600Z,99.9
2019-03-24T09:20:41.786Z,99.9
2019-03-24T09:21:49.189Z,99.9
2019-03-24T09:22:56.111Z,99.9
2019-03-24T09:24:02.755Z,99.9
2019-03-24T09:25:09.957Z,99.9
2019-03-24T09:26:17.155Z,99.9
2019-03-24T09:27:24.363Z,99.9
2019-03-24T09:28:31.563Z,99.9
2019-03-24T09:29:38.504Z,99.9
2019-03-24T09:30:45.706Z,99.9
2019-03-24T09:31:52.912Z,99.9
2019-03-24T09:32:59.575Z,99.9
2019-03-24T09:34:06.788Z,99.9
2019-03-24T09:35:14.000Z,99.9
2019-03-24T09:36:21.211Z,99.9
2019-03-24T09:37:28.441Z,99.9
2019-03-24T09:38:35.373Z,99.9
2019-03-24T09:39:42.582Z,99.9
2019-03-24T09:40:49.781Z,99.9
2019-03-24T09:41:56.987Z,99.9
2019-03-24T09:43:04.189Z,99.9
2019-03-24T09:44:11.435Z,99.9
2019-03-24T09:45:18.636Z,99.9
2019-03-24T09:46:25.291Z,99.9
2019-03-24T09:47:32.216Z,99.9
2019-03-24T09:48:39.153Z,99.9
2019-03-24T09:49:46.082Z,99.9
2019-03-24T09:50:53.035Z,99.9
2019-03-24T09:52:00.236Z,99.9
2019-03-24T09:53:07.167Z,99.9
2019-03-24T09:54:14.376Z,99.9
2019-03-24T09:55:21.583Z,99.9
2019-03-24T09:56:28.785Z,99.9
2019-03-24T09:57:35.760Z,99.9
2019-03-24T09:58:42.967Z,99.9
2019-03-24T09:59:50.175Z,99.9
2019-03-24T10:00:57.384Z,99.9
2019-03-24T10:02:04.582Z,99.9
2019-03-24T10:03:11.508Z,99.9
2019-03-24T10:04:18.716Z,99.9
2019-03-24T10:05:25.930Z,99.9
2019-03-24T10:06:32.858Z,99.9
2019-03-24T10:07:40.066Z,99.9
2019-03-24T10:08:47.557Z,99.9
2019-03-24T10:09:54.773Z,99.9
2019-03-24T10:11:01.978Z,99.9
2019-03-24T10:12:09.190Z,99.9
2019-03-24T10:13:16.403Z,99.9
2019-03-24T10:14:23.333Z,99.9
2019-03-24T10:15:30.538Z,99.9
2019-03-24T10:16:37.745Z,99.9
2019-03-24T10:17:44.943Z,99.9
2019-03-24T10:18:52.149Z,99.9
2019-03-24T10:19:59.365Z,99.9
2019-03-24T10:21:06.628Z,99.9
2019-03-24T10:22:13.560Z,99.9
2019-03-24T10:23:20.772Z,99.9
2019-03-24T10:24:27.435Z,99.9
2019-03-24T10:25:34.659Z,99.9
2019-03-24T10:26:41.863Z,99.9
2019-03-24T10:27:49.070Z,99.9
2019-03-24T10:28:56.269Z,99.9
2019-03-24T10:30:03.199Z,99.9
2019-03-24T10:31:10.408Z,99.9
2019-03-24T10:32:17.616Z,99.9
2019-03-24T10:33:24.821Z,99.9
2019-03-24T10:34:32.025Z,99.9
2019-03-24T10:35:39.231Z,99.9
2019-03-24T10:36:45.888Z,99.9
2019-03-24T10:37:53.094Z,99.9
2019-03-24T10:39:00.298Z,99.9
2019-03-24T10:40:07.506Z,99.9
2019-03-24T10:41:14.440Z,99.9
2019-03-24T10:42:21.647Z,99.9
2019-03-24T10:43:28.851Z,99.9
2019-03-24T10:44:36.069Z,99.9
2019-03-24T10:45:43.043Z,99.9
2019-03-24T10:46:50.247Z,99.9
2019-03-24T10:47:57.460Z,99.9
2019-03-24T10:49:04.669Z,99.9
2019-03-24T10:50:11.609Z,99.9
2019-03-24T10:51:21.290Z,99.9
2019-03-24T10:52:28.495Z,99.9
2019-03-24T10:54:57.562Z,99.9
2019-03-24T10:56:04.496Z,99.9
2019-03-24T10:57:11.698Z,99.9
2019-03-24T10:58:18.917Z,99.9
2019-03-24T10:59:26.122Z,99.9
2019-03-24T11:00:33.325Z,99.9
2019-03-24T11:01:40.535Z,99.9
2019-03-24T11:02:47.745Z,99.9
2019-03-24T11:03:54.677Z,99.9
2019-03-24T11:05:01.615Z,99.9
2019-03-24T11:06:08.820Z,99.9
2019-03-24T11:07:16.025Z,99.9
2019-03-24T11:08:23.235Z,99.9
2019-03-24T11:09:30.436Z,99.9
2019-03-24T11:10:37.658Z,99.9
2019-03-24T11:11:44.859Z,99.9
2019-03-24T11:12:52.076Z,99.9
2019-03-24T11:13:59.019Z,99.9
2019-03-24T11:15:06.230Z,99.9
2019-03-24T11:16:13.439Z,99.9
2019-03-24T11:17:20.679Z,99.9
2019-03-24T11:18:27.614Z,99.9
2019-03-24T11:19:35.843Z,99.9
2019-03-24T11:20:43.281Z,99.9
2019-03-24T11:21:50.485Z,99.9
2019-03-24T11:22:57.697Z,99.9
2019-03-24T11:24:04.915Z,99.9
2019-03-24T11:25:12.123Z,99.9
2019-03-24T11:26:19.335Z,99.9
2019-03-24T11:27:25.993Z,99.9
2019-03-24T11:28:33.207Z,99.9
2019-03-24T11:29:40.415Z,99.9
2019-03-24T11:30:47.682Z,99.9
2019-03-24T11:31:54.329Z,99.9
2019-03-24T11:33:01.542Z,99.9
2019-03-24T11:34:08.754Z,99.9
2019-03-24T11:35:15.948Z,99.9
2019-03-24T11:36:23.158Z,99.9
2019-03-24T11:37:30.361Z,99.9
2019-03-24T11:38:37.302Z,99.9
2019-03-24T11:39:44.255Z,99.9
2019-03-24T11:40:51.461Z,99.9
2019-03-24T11:41:58.393Z,99.9
2019-03-24T11:43:05.337Z,99.9
2019-03-24T11:44:12.602Z,99.9
2019-03-24T11:45:19.811Z,99.9
2019-03-24T11:46:27.022Z,99.9
2019-03-24T11:47:34.237Z,99.9
2019-03-24T11:48:41.175Z,99.9
2019-03-24T11:49:49.178Z,99.9
2019-03-24T11:50:56.453Z,99.9
2019-03-24T11:52:03.667Z,99.9
2019-03-24T11:53:10.896Z,99.9
2019-03-24T11:54:18.103Z,99.9
2019-03-24T11:55:25.309Z,99.9
2019-03-24T11:56:32.520Z,99.9
2019-03-24T11:57:39.735Z,99.9
2019-03-24T11:58:47.012Z,99.9
2019-03-24T11:59:54.567Z,99.9
2019-03-24T12:01:01.505Z,99.9
2019-03-24T12:02:08.442Z,99.9
2019-03-24T12:03:15.655Z,99.9
2019-03-24T12:04:22.865Z,99.9
2019-03-24T12:05:29.801Z,99.9
2019-03-24T12:06:37.017Z,99.9
2019-03-24T12:07:44.242Z,99.9
2019-03-24T12:08:51.487Z,99.9
2019-03-24T12:09:58.692Z,99.9
2019-03-24T12:11:06.118Z,99.9
2019-03-24T12:12:13.331Z,99.9
2019-03-24T12:13:20.272Z,99.9
2019-03-24T12:14:27.474Z,99.9
2019-03-24T12:15:34.681Z,99.9
2019-03-24T12:16:41.893Z,99.9
2019-03-24T12:17:49.102Z,99.9
2019-03-24T12:18:56.311Z,99.9
2019-03-24T12:20:03.250Z,99.9
2019-03-24T12:21:10.453Z,99.9
2019-03-24T12:22:17.662Z,99.9
2019-03-24T12:23:24.876Z,99.9
2019-03-24T12:24:31.830Z,99.9
2019-03-24T12:25:39.042Z,99.9
2019-03-24T12:26:46.249Z,99.9
2019-03-24T12:27:53.461Z,99.9
2019-03-24T12:29:00.676Z,99.9
2019-03-24T12:30:07.888Z,99.9
2019-03-24T12:31:15.106Z,99.9
2019-03-24T12:32:22.041Z,99.9
2019-03-24T12:33:29.265Z,99.9
2019-03-24T12:34:36.214Z,99.9
2019-03-24T12:35:43.425Z,99.9
2019-03-24T12:36:50.638Z,99.9
2019-03-24T12:37:57.862Z,99.9
2019-03-24T12:39:04.797Z,99.9
2019-03-24T12:40:12.014Z,99.9
2019-03-24T12:41:18.958Z,99.9
2019-03-24T12:42:26.173Z,99.9
2019-03-24T12:43:33.112Z,99.9
2019-03-24T12:44:40.055Z,99.9
2019-03-24T12:45:46.995Z,99.9
2019-03-24T12:46:54.221Z,99.9
2019-03-24T12:48:01.165Z,99.9
2019-03-24T12:49:08.386Z,99.9
2019-03-24T12:50:15.608Z,99.9
2019-03-24T12:51:22.823Z,99.9
2019-03-24T12:52:29.772Z,99.9
2019-03-24T12:53:36.989Z,99.9
2019-03-24T12:54:44.204Z,98.5
2019-03-24T12:55:51.424Z,99.9
2019-03-24T12:56:58.640Z,99.9
2019-03-24T12:58:05.863Z,98.8
2019-03-24T12:59:13.111Z,99.9
2019-03-24T13:00:20.036Z,99.9
2019-03-24T13:01:27.009Z,99.9
2019-03-24T13:02:33.971Z,99.9
2019-03-24T13:03:41.167Z,98
2019-03-24T13:04:48.104Z,98.1
2019-03-24T13:05:55.309Z,99.9
2019-03-24T13:07:02.246Z,95.8
2019-03-24T13:08:09.422Z,94.4
2019-03-24T13:09:16.656Z,94.6
2019-03-24T13:10:23.317Z,96.8
2019-03-24T13:11:30.530Z,91.9
2019-03-24T13:12:37.756Z,99.6
2019-03-24T13:13:44.967Z,96.7
2019-03-24T13:14:51.906Z,96.1
2019-03-24T13:15:59.327Z,86.9
2019-03-24T13:17:06.552Z,86.5
2019-03-24T13:18:13.754Z,89.1
2019-03-24T13:19:20.426Z,75.4
2019-03-24T13:20:36.773Z,77.3
2019-03-24T13:21:45.686Z,86.3
2019-03-24T13:22:52.909Z,75.7
2019-03-24T13:24:00.133Z,75.6
2019-03-24T13:25:07.355Z,61
2019-03-24T13:26:14.583Z,60.1
2019-03-24T13:27:21.522Z,68.6
2019-03-24T13:28:28.740Z,83.2
2019-03-24T13:29:35.973Z,81.3
2019-03-24T13:30:42.633Z,92.3
2019-03-24T13:31:49.895Z,89.7
2019-03-24T13:32:57.115Z,90.4
2019-03-24T13:34:04.044Z,88.1
2019-03-24T13:35:11.261Z,80.4
2019-03-24T13:36:18.485Z,71.1
2019-03-24T13:37:25.690Z,69.7
2019-03-24T13:38:32.897Z,64.9
2019-03-24T13:39:40.106Z,60.4
2019-03-24T13:40:46.779Z,60.8
2019-03-24T13:41:53.728Z,65.5
2019-03-24T13:43:00.944Z,76.8
2019-03-24T13:44:07.883Z,70.3
2019-03-24T13:45:15.100Z,72
2019-03-24T13:46:22.325Z,72.1
2019-03-24T13:47:29.546Z,86
2019-03-24T13:48:36.759Z,90
2019-03-24T13:49:43.975Z,83.6
2019-03-24T13:50:51.186Z,72.2
2019-03-24T13:51:58.401Z,69.2
2019-03-24T13:53:05.616Z,76.1
2019-03-24T13:54:12.825Z,83.9
2019-03-24T13:55:19.761Z,93.1
2019-03-24T13:56:26.971Z,84.1
2019-03-24T13:57:33.977Z,89.3
2019-03-24T13:58:41.481Z,86
2019-03-24T13:59:48.419Z,77.8
2019-03-24T14:00:55.365Z,70
2019-03-24T14:02:02.582Z,67.2
2019-03-24T14:03:09.799Z,76.1
2019-03-24T14:04:17.010Z,66.2
2019-03-24T14:05:23.963Z,73.2
2019-03-24T14:06:31.171Z,77.9
2019-03-24T14:07:38.378Z,76.7
2019-03-24T14:08:45.604Z,77.5
2019-03-24T14:09:52.544Z,80.5
2019-03-24T14:10:59.751Z,80.5
2019-03-24T14:12:06.960Z,75.6
2019-03-24T14:13:14.170Z,83.8
2019-03-24T14:14:21.379Z,73.6
2019-03-24T14:15:28.309Z,80.6
2019-03-24T14:16:35.243Z,71.8
2019-03-24T14:17:42.463Z,77
2019-03-24T14:18:49.678Z,82.6
2019-03-24T14:19:56.887Z,80.8
2019-03-24T14:21:04.103Z,88.5
2019-03-24T14:22:11.029Z,91.7
2019-03-24T14:23:17.699Z,87.6
2019-03-24T14:24:24.640Z,90.5
2019-03-24T14:25:31.867Z,90.5
2019-03-24T14:26:39.085Z,93.2
2019-03-24T14:27:46.296Z,91.7
2019-03-24T14:28:53.503Z,95
2019-03-24T14:30:00.453Z,95.2
2019-03-24T14:31:07.690Z,94.7
2019-03-24T14:32:14.623Z,97.8
2019-03-24T14:33:21.883Z,98.3
2019-03-24T14:34:28.816Z,99.9
2019-03-24T14:35:36.029Z,99.9
2019-03-24T14:36:42.985Z,99.9
2019-03-24T14:37:50.191Z,99.9
2019-03-24T14:38:57.401Z,97.8
2019-03-24T14:40:04.616Z,98.1
2019-03-24T14:41:11.551Z,98
2019-03-24T14:42:18.756Z,98.8
2019-03-24T14:43:25.690Z,96.8
2019-03-24T14:44:32.899Z,94.6
2019-03-24T14:45:40.108Z,96.6
2019-03-24T14:46:47.323Z,98.8
2019-03-24T14:47:54.270Z,99.6
2019-03-24T14:49:01.490Z,97.8
2019-03-24T14:50:08.692Z,97.5
2019-03-24T14:51:15.909Z,99.2
2019-03-24T14:52:22.567Z,98.1
2019-03-24T14:53:29.508Z,94.9
2019-03-24T14:54:36.945Z,95.1
2019-03-24T14:55:44.139Z,97.2
2019-03-24T14:56:51.363Z,96.1
2019-03-24T14:57:58.573Z,92.9